Time;durP1;ratioP1;P1;durP2;ratioP2;P2;SDS_P1;SDS_P2;PMS_P1;PMS_P2;Temp;Humidity;BMP_temperature;BMP_pressure;BME280_temperature;BME280_humidity;BME280_pressure;Samples;Min_cycle;Max_cycle;Signal;HPM_P1;HPM_P2
2022/11/25 00:00:05;;;;;;;1.60;1.30;;;7.90;98.20;;;;;;5014190;28;20743;-76
2022/11/25 00:02:32;;;;;;;1.60;1.20;;;7.90;98.20;;;;;;5028796;28;21015;-76
2022/11/25 00:04:58;;;;;;;1.70;1.37;;;7.90;98.20;;;;;;5018602;28;20906;-76
2022/11/25 00:07:26;;;;;;;1.60;1.23;;;7.90;98.20;;;;;;5033014;28;20482;-77
2022/11/25 00:09:53;;;;;;;1.60;1.20;;;7.90;98.20;;;;;;5033814;28;20721;-76
2022/11/25 00:12:20;;;;;;;1.60;1.30;;;7.90;98.20;;;;;;5033422;28;21003;-77
2022/11/25 00:14:47;;;;;;;1.60;1.30;;;7.90;98.20;;;;;;5017562;28;20464;-77
2022/11/25 00:17:13;;;;;;;1.60;1.20;;;8.00;98.20;;;;;;5024102;28;20485;-77
2022/11/25 00:19:40;;;;;;;1.60;1.30;;;8.00;98.20;;;;;;5019872;28;20460;-77
2022/11/25 00:22:07;;;;;;;2.10;1.90;;;8.00;98.20;;;;;;5031885;28;20481;-77
2022/11/25 00:24:35;;;;;;;1.57;1.20;;;8.00;98.20;;;;;;5029465;28;20459;-77
2022/11/25 00:27:03;;;;;;;1.63;1.40;;;8.00;98.20;;;;;;5018573;28;20561;-76
2022/11/25 00:29:30;;;;;;;1.60;1.30;;;8.10;98.20;;;;;;5016597;28;20458;-76
2022/11/25 00:31:57;;;;;;;1.60;1.30;;;8.10;98.20;;;;;;5018088;28;20482;-77
2022/11/25 00:34:24;;;;;;;1.60;1.20;;;8.10;98.20;;;;;;5036220;28;20459;-77
2022/11/25 00:36:52;;;;;;;1.60;1.20;;;8.10;98.20;;;;;;5028262;28;20863;-76
2022/11/25 00:39:19;;;;;;;1.60;1.30;;;8.10;98.20;;;;;;5027499;28;20995;-76
2022/11/25 00:44:38;;;;;;;1.60;1.30;;;8.10;98.20;;;;;;5031216;28;20585;-77
2022/11/25 00:47:07;;;;;;;1.60;1.20;;;8.10;98.20;;;;;;5031120;28;20478;-77
2022/11/25 00:49:33;;;;;;;1.60;1.10;;;8.10;98.20;;;;;;5036086;28;20856;-77
2022/11/25 00:52:00;;;;;;;1.60;1.20;;;8.10;98.20;;;;;;5029048;28;20486;-77
2022/11/25 00:54:27;;;;;;;1.60;1.30;;;8.20;98.20;;;;;;5021954;28;20953;-77
2022/11/25 00:56:56;;;;;;;1.60;1.40;;;8.20;98.20;;;;;;5017162;28;20504;-76
2022/11/25 00:59:22;;;;;;;1.60;1.20;;;8.20;98.20;;;;;;5030691;28;20467;-76
2022/11/25 01:01:49;;;;;;;1.60;1.20;;;8.20;98.20;;;;;;5016800;28;20498;-76
2022/11/25 01:04:17;;;;;;;1.60;1.30;;;8.20;98.20;;;;;;5025479;28;20233;-76
2022/11/25 01:06:44;;;;;;;1.60;1.30;;;8.30;98.20;;;;;;5022007;28;20853;-77
2022/11/25 01:09:12;;;;;;;1.60;1.30;;;8.30;98.20;;;;;;5047171;28;20466;-77
2022/11/25 01:11:40;;;;;;;1.60;1.30;;;8.30;98.20;;;;;;5026815;28;20485;-76
2022/11/25 01:14:08;;;;;;;1.70;1.40;;;8.30;98.20;;;;;;5026911;28;20456;-75
2022/11/25 01:16:35;;;;;;;1.60;1.20;;;8.40;98.20;;;;;;5018463;28;21075;-76
2022/11/25 01:19:04;;;;;;;1.60;1.20;;;8.40;98.20;;;;;;5048984;28;20459;-76
2022/11/25 01:21:34;;;;;;;1.60;1.20;;;8.40;98.20;;;;;;5025923;28;20482;-76
2022/11/25 01:24:02;;;;;;;1.60;1.30;;;8.40;98.20;;;;;;5027589;28;20487;-76
2022/11/25 01:26:29;;;;;;;1.60;1.30;;;8.40;98.20;;;;;;5010862;28;20485;-75
2022/11/25 01:28:57;;;;;;;1.60;1.20;;;8.40;98.20;;;;;;5030733;28;20502;-74
2022/11/25 01:31:28;;;;;;;1.60;1.20;;;8.50;98.20;;;;;;5013472;28;20473;-75
2022/11/25 01:33:56;;;;;;;1.60;1.30;;;8.50;98.20;;;;;;5049690;28;20814;-75
2022/11/25 01:36:24;;;;;;;1.60;1.20;;;8.50;98.20;;;;;;5023138;28;20482;-74
2022/11/25 01:38:52;;;;;;;1.60;1.20;;;8.60;98.20;;;;;;5039992;28;20463;-75
2022/11/25 01:41:19;;;;;;;1.60;1.20;;;8.60;98.20;;;;;;5024192;28;20890;-75
2022/11/25 01:44:05;;;;;;;1.60;1.30;;;8.60;98.20;;;;;;5031670;28;20805;-75
2022/11/25 01:46:43;;;;;;;2.60;2.40;;;8.60;98.20;;;;;;5016347;28;20982;-75
2022/11/25 01:49:14;;;;;;;1.60;1.30;;;8.70;98.20;;;;;;5046373;28;20458;-75
2022/11/25 01:51:45;;;;;;;1.60;1.20;;;8.70;98.20;;;;;;5025808;28;20505;-75
2022/11/25 01:54:15;;;;;;;1.60;1.20;;;8.70;98.20;;;;;;5025268;28;20483;-75
2022/11/25 01:56:46;;;;;;;1.60;1.20;;;8.70;98.20;;;;;;5012945;28;21043;-75
2022/11/25 01:59:14;;;;;;;1.60;1.20;;;8.80;98.20;;;;;;5025167;28;20460;-75
2022/11/25 02:01:42;;;;;;;1.60;1.20;;;8.80;98.20;;;;;;5017303;28;20484;-75
2022/11/25 02:04:10;;;;;;;1.60;1.20;;;8.80;98.20;;;;;;5026429;28;20495;-75
2022/11/25 02:06:44;;;;;;;1.87;1.73;;;8.80;98.20;;;;;;5021680;28;20482;-74
2022/11/25 02:09:10;;;;;;;1.60;1.30;;;8.80;98.20;;;;;;5036733;28;20474;-75
2022/11/25 02:11:41;;;;;;;1.60;1.20;;;8.90;98.20;;;;;;5025621;28;20497;-75
2022/11/25 02:14:09;;;;;;;1.60;1.10;;;8.90;98.20;;;;;;5033048;28;20471;-75
2022/11/25 02:16:36;;;;;;;1.60;1.20;;;8.90;98.20;;;;;;5024409;28;20529;-75
2022/11/25 02:19:05;;;;;;;1.60;1.20;;;8.90;98.20;;;;;;5037991;28;20470;-74
2022/11/25 02:21:40;;;;;;;1.60;1.20;;;9.00;98.20;;;;;;5024966;28;20987;-75
2022/11/25 02:24:13;;;;;;;1.60;1.10;;;9.00;98.20;;;;;;5027476;28;20970;-75
2022/11/25 02:26:41;;;;;;;1.60;1.20;;;9.00;98.20;;;;;;5015221;28;20485;-75
2022/11/25 02:29:07;;;;;;;1.60;1.30;;;9.00;98.20;;;;;;5025067;28;20460;-75
2022/11/25 02:31:34;;;;;;;1.60;1.20;;;9.10;98.20;;;;;;5003880;28;20846;-75
2022/11/25 02:34:01;;;;;;;1.60;1.20;;;9.10;98.20;;;;;;5019343;28;20464;-75
2022/11/25 02:36:28;;;;;;;1.60;1.27;;;9.10;98.20;;;;;;5009471;28;20541;-76
2022/11/25 02:38:57;;;;;;;1.60;1.20;;;9.10;98.20;;;;;;5017143;28;20463;-75
2022/11/25 02:41:30;;;;;;;1.60;1.30;;;9.10;98.20;;;;;;5015162;28;20474;-75
2022/11/25 02:43:59;;;;;;;1.60;1.30;;;9.20;98.20;;;;;;5043513;22;20496;-78
2022/11/25 02:46:27;;;;;;;1.60;1.10;;;9.20;98.20;;;;;;5014009;28;21005;-77
2022/11/25 02:48:56;;;;;;;1.60;1.20;;;9.20;98.20;;;;;;5049012;28;20467;-79
2022/11/25 02:51:24;;;;;;;1.60;1.10;;;9.30;98.20;;;;;;5022799;28;20925;-78
2022/11/25 02:53:51;;;;;;;1.70;1.40;;;9.30;98.20;;;;;;5041886;28;20479;-78
2022/11/25 02:56:20;;;;;;;1.60;1.20;;;9.30;98.20;;;;;;5024747;28;20473;-79
2022/11/25 02:58:46;;;;;;;1.60;1.20;;;9.40;98.20;;;;;;5050978;28;20459;-78
2022/11/25 03:01:14;;;;;;;1.60;1.10;;;9.40;98.20;;;;;;5026622;28;21044;-78
2022/11/25 03:03:41;;;;;;;1.60;1.20;;;9.40;98.20;;;;;;5072362;28;20490;-78
2022/11/25 03:06:09;;;;;;;1.60;1.30;;;9.40;98.20;;;;;;5027371;28;20475;-79
2022/11/25 03:08:36;;;;;;;1.60;1.20;;;9.40;98.20;;;;;;5053788;28;20968;-78
2022/11/25 03:11:03;;;;;;;1.60;1.20;;;9.40;98.20;;;;;;5022448;28;20574;-78
2022/11/25 03:13:30;;;;;;;1.60;1.20;;;9.40;98.20;;;;;;5075645;28;20862;-79
2022/11/25 03:15:57;;;;;;;1.60;1.10;;;9.40;98.20;;;;;;5036507;28;20458;-78
2022/11/25 03:18:25;;;;;;;1.60;1.20;;;9.40;98.20;;;;;;5061514;28;20466;-78
2022/11/25 03:20:53;;;;;;;1.60;1.20;;;9.40;98.20;;;;;;5039055;28;20465;-78
2022/11/25 03:23:20;;;;;;;1.60;1.30;;;9.40;98.20;;;;;;5047665;28;20486;-78
2022/11/25 03:25:47;;;;;;;1.60;1.20;;;9.40;98.20;;;;;;5029748;28;20463;-78
2022/11/25 03:28:14;;;;;;;1.60;1.20;;;9.40;98.20;;;;;;5062663;28;20466;-78
2022/11/25 03:30:41;;;;;;;1.60;1.10;;;9.40;98.20;;;;;;5031216;28;20469;-79
2022/11/25 03:33:07;;;;;;;1.60;1.20;;;9.40;98.20;;;;;;5054080;28;20485;-78
2022/11/25 03:35:35;;;;;;;1.60;1.20;;;9.40;98.20;;;;;;5049037;28;20462;-79
2022/11/25 03:38:02;;;;;;;1.60;1.20;;;9.40;98.20;;;;;;5055203;28;20485;-78
2022/11/25 03:40:29;;;;;;;1.60;1.20;;;9.40;98.20;;;;;;5051237;28;20461;-79
2022/11/25 03:42:56;;;;;;;1.60;1.27;;;9.40;98.20;;;;;;5061819;28;20508;-78
2022/11/25 03:45:22;;;;;;;1.70;1.40;;;9.40;98.20;;;;;;5030612;28;20463;-78
2022/11/25 03:47:49;;;;;;;1.60;1.30;;;9.40;98.20;;;;;;5068246;28;20491;-78
2022/11/25 03:50:16;;;;;;;1.60;1.20;;;9.40;98.20;;;;;;5051095;28;20462;-78
2022/11/25 03:52:44;;;;;;;1.60;1.20;;;9.40;98.20;;;;;;5055063;28;20481;-78
2022/11/25 03:55:11;;;;;;;1.60;1.20;;;9.40;98.20;;;;;;5031425;28;20459;-78
2022/11/25 03:57:38;;;;;;;1.60;1.20;;;9.40;98.20;;;;;;5034788;28;20569;-78
2022/11/25 04:00:07;;;;;;;1.60;1.10;;;9.40;98.20;;;;;;5013868;28;21151;-79
2022/11/25 04:02:34;;;;;;;1.60;1.20;;;9.50;98.20;;;;;;5043223;28;20562;-78
2022/11/25 04:05:02;;;;;;;1.60;1.10;;;9.50;98.20;;;;;;5034215;28;20487;-78
2022/11/25 04:07:28;;;;;;;1.60;1.10;;;9.50;98.20;;;;;;5060409;28;20916;-78
2022/11/25 04:09:56;;;;;;;1.60;1.20;;;9.50;98.20;;;;;;5055904;28;20465;-78
2022/11/25 04:15:08;;;;;;;1.60;1.20;;;9.50;98.20;;;;;;5031417;28;20455;-78
2022/11/25 04:17:35;;;;;;;1.57;1.10;;;9.50;98.20;;;;;;5034441;28;20485;-79
2022/11/25 04:20:03;;;;;;;1.60;1.10;;;9.50;98.20;;;;;;5031947;28;20538;-78
2022/11/25 04:22:29;;;;;;;1.60;1.20;;;9.50;98.20;;;;;;5041567;28;20482;-78
2022/11/25 04:24:57;;;;;;;1.60;1.30;;;9.50;98.20;;;;;;5030490;28;20491;-78
2022/11/25 04:27:24;;;;;;;1.60;1.20;;;9.50;98.20;;;;;;5038972;28;20477;-78
2022/11/25 04:29:51;;;;;;;1.60;1.20;;;9.50;98.20;;;;;;5033793;28;20737;-79
2022/11/25 04:32:18;;;;;;;1.60;1.20;;;9.50;98.20;;;;;;5048668;28;20489;-79
2022/11/25 04:34:44;;;;;;;1.60;1.20;;;9.50;98.20;;;;;;5037494;28;20475;-79
2022/11/25 04:37:11;;;;;;;1.60;1.20;;;9.50;98.20;;;;;;5045501;28;20510;-79
2022/11/25 04:39:38;;;;;;;1.60;1.20;;;9.50;98.20;;;;;;5041908;28;20456;-80
2022/11/25 04:44:51;;;;;;;1.60;1.10;;;9.40;98.20;;;;;;5038575;28;20488;-78
2022/11/25 04:47:17;;;;;;;1.60;1.10;;;9.40;98.20;;;;;;5050659;28;20945;-78
2022/11/25 04:49:44;;;;;;;1.57;1.20;;;9.40;98.20;;;;;;5035759;28;20466;-79
2022/11/25 04:52:11;;;;;;;1.60;1.17;;;9.30;98.20;;;;;;5054787;28;20481;-79
2022/11/25 04:54:38;;;;;;;1.60;1.20;;;9.30;98.20;;;;;;5047499;28;20494;-79
2022/11/25 04:57:06;;;;;;;1.60;1.10;;;9.30;98.20;;;;;;5033428;28;20485;-79
2022/11/25 04:59:38;;;;;;;1.60;1.20;;;9.30;98.20;;;;;;5032195;28;20515;-78
2022/11/25 05:02:05;;;;;;;1.60;1.20;;;9.20;98.20;;;;;;5037947;28;20474;-78
2022/11/25 05:04:32;;;;;;;1.60;1.20;;;9.20;98.20;;;;;;5039464;28;20888;-78
2022/11/25 05:06:59;;;;;;;1.60;1.10;;;9.20;98.20;;;;;;5038226;28;20867;-80
2022/11/25 05:09:25;;;;;;;1.60;1.10;;;9.20;98.20;;;;;;5041582;28;20471;-79
2022/11/25 05:11:52;;;;;;;1.60;1.10;;;9.20;98.20;;;;;;5034886;28;20492;-78
2022/11/25 05:14:21;;;;;;;1.60;1.20;;;9.20;98.20;;;;;;5043188;28;20857;-79
2022/11/25 05:16:48;;;;;;;1.53;1.17;;;9.20;98.20;;;;;;5036437;28;20562;-79
2022/11/25 05:19:15;;;;;;;1.60;1.17;;;9.20;98.20;;;;;;5045284;28;20467;-79
2022/11/25 05:21:41;;;;;;;1.60;1.20;;;9.20;98.20;;;;;;5034936;28;20473;-79
2022/11/25 05:24:08;;;;;;;1.70;1.27;;;9.20;98.20;;;;;;5046306;28;20872;-79
2022/11/25 05:26:35;;;;;;;1.60;1.10;;;9.10;98.20;;;;;;5031487;28;20474;-79
2022/11/25 05:29:02;;;;;;;1.60;1.20;;;9.10;98.20;;;;;;5049955;28;20638;-79
2022/11/25 05:31:30;;;;;;;1.60;1.20;;;9.10;98.20;;;;;;5022495;28;20858;-79
2022/11/25 05:34:00;;;;;;;1.60;1.10;;;9.10;98.20;;;;;;5027975;28;20475;-79
2022/11/25 05:36:27;;;;;;;1.60;1.23;;;9.10;98.20;;;;;;5028800;28;20893;-78
2022/11/25 05:38:56;;;;;;;1.60;1.20;;;9.10;98.20;;;;;;5053594;28;20471;-78
2022/11/25 05:41:22;;;;;;;1.77;1.67;;;9.10;98.20;;;;;;5029486;28;20473;-77
2022/11/25 05:43:49;;;;;;;1.60;1.13;;;9.10;98.20;;;;;;5050227;28;20494;-77
2022/11/25 05:46:16;;;;;;;1.60;1.20;;;9.10;98.20;;;;;;5027824;28;20562;-78
2022/11/25 05:48:44;;;;;;;1.60;1.20;;;9.00;98.20;;;;;;5054768;28;20537;-78
2022/11/25 05:51:11;;;;;;;1.60;1.20;;;9.00;98.20;;;;;;5026915;28;20503;-79
2022/11/25 05:53:38;;;;;;;1.60;1.20;;;9.00;98.20;;;;;;5057205;28;20569;-79
2022/11/25 05:56:07;;;;;;;1.60;1.20;;;9.00;98.20;;;;;;5024137;28;20456;-79
2022/11/25 05:58:34;;;;;;;1.60;1.10;;;9.10;98.20;;;;;;5051824;28;20559;-78
2022/11/25 06:01:01;;;;;;;1.60;1.27;;;9.00;98.20;;;;;;5022090;28;20463;-79
2022/11/25 06:03:28;;;;;;;1.60;1.10;;;9.00;98.20;;;;;;5056951;28;20515;-79
2022/11/25 06:05:58;;;;;;;1.60;1.10;;;9.00;98.20;;;;;;5022179;28;20479;-79
2022/11/25 06:08:25;;;;;;;1.60;1.10;;;9.00;98.20;;;;;;5058517;28;20826;-79
2022/11/25 06:10:52;;;;;;;1.60;1.20;;;9.00;98.20;;;;;;5019180;28;20481;-79
2022/11/25 06:13:19;;;;;;;1.60;1.20;;;9.00;98.20;;;;;;5058364;28;20497;-79
2022/11/25 06:15:47;;;;;;;1.60;1.30;;;9.00;98.20;;;;;;5029296;28;20466;-79
2022/11/25 06:18:16;;;;;;;1.60;1.20;;;9.00;98.20;;;;;;5017840;28;20471;-79
2022/11/25 06:20:43;;;;;;;1.60;1.20;;;9.00;98.20;;;;;;5026261;28;20471;-78
2022/11/25 06:23:11;;;;;;;1.60;1.20;;;9.00;98.20;;;;;;5046671;28;20494;-80
2022/11/25 06:25:39;;;;;;;1.60;1.30;;;9.00;98.20;;;;;;5023689;28;20475;-79
2022/11/25 06:28:05;;;;;;;1.60;1.10;;;9.00;98.20;;;;;;5047179;28;20481;-79
2022/11/25 06:30:32;;;;;;;1.60;1.20;;;9.00;98.20;;;;;;5026581;28;20465;-79
2022/11/25 06:32:59;;;;;;;1.60;1.20;;;9.00;98.20;;;;;;5047391;28;20489;-80
2022/11/25 06:35:26;;;;;;;1.60;1.20;;;8.90;98.20;;;;;;5026715;28;20456;-79
2022/11/25 06:37:52;;;;;;;1.60;1.20;;;8.90;98.20;;;;;;5048913;28;20778;-79
2022/11/25 06:40:20;;;;;;;1.60;1.20;;;8.90;98.20;;;;;;5027586;28;20467;-79
2022/11/25 06:42:47;;;;;;;1.60;1.20;;;8.90;98.20;;;;;;5049485;28;20481;-79
2022/11/25 06:45:14;;;;;;;1.60;1.13;;;8.90;98.20;;;;;;5026869;28;20888;-78
2022/11/25 06:47:41;;;;;;;1.60;1.40;;;8.90;98.20;;;;;;5048585;28;20783;-79
2022/11/25 06:50:08;;;;;;;1.60;1.20;;;8.90;98.20;;;;;;5028535;28;20475;-78
2022/11/25 06:52:35;;;;;;;1.60;1.20;;;8.90;98.20;;;;;;5044402;28;20695;-79
2022/11/25 06:55:03;;;;;;;1.60;1.20;;;8.90;98.20;;;;;;5030558;28;20446;-79
2022/11/25 06:57:31;;;;;;;1.60;1.20;;;8.90;98.20;;;;;;5047338;28;20519;-78
2022/11/25 06:59:58;;;;;;;1.60;1.20;;;8.90;98.20;;;;;;5036200;28;20841;-79
2022/11/25 07:02:25;;;;;;;1.60;1.30;;;8.90;98.20;;;;;;5046338;28;20481;-79
2022/11/25 07:04:52;;;;;;;1.60;1.20;;;8.90;98.20;;;;;;5036857;28;20485;-78
2022/11/25 07:07:19;;;;;;;1.60;1.20;;;8.90;98.20;;;;;;5043406;28;20481;-79
2022/11/25 07:09:46;;;;;;;1.60;1.20;;;8.90;98.20;;;;;;5037621;28;20474;-78
2022/11/25 07:12:13;;;;;;;1.60;1.20;;;8.90;98.20;;;;;;5043308;28;20504;-79
2022/11/25 07:14:41;;;;;;;1.60;1.20;;;8.80;98.20;;;;;;5039416;28;20471;-78
2022/11/25 07:17:08;;;;;;;2.07;1.87;;;8.80;98.20;;;;;;5043017;28;20568;-79
2022/11/25 07:19:35;;;;;;;1.60;1.20;;;8.80;98.20;;;;;;5039197;28;20471;-79
2022/11/25 07:22:02;;;;;;;1.60;1.30;;;8.70;98.20;;;;;;5043546;28;20493;-79
2022/11/25 07:24:29;;;;;;;1.60;1.17;;;8.70;98.20;;;;;;5041875;28;20992;-79
2022/11/25 07:26:56;;;;;;;1.60;1.30;;;8.60;98.20;;;;;;5038981;28;20775;-82
2022/11/25 07:29:23;;;;;;;1.60;1.23;;;8.60;98.20;;;;;;5044420;28;20463;-79
2022/11/25 07:31:51;;;;;;;1.60;1.20;;;8.50;98.20;;;;;;5038340;28;20978;-79
2022/11/25 07:34:20;;;;;;;1.60;1.20;;;8.50;98.20;;;;;;5044816;28;20772;-78
2022/11/25 07:36:49;;;;;;;1.80;1.70;;;8.50;98.20;;;;;;5036437;28;20499;-78
2022/11/25 07:39:17;;;;;;;1.60;1.20;;;8.50;98.20;;;;;;5046584;28;20481;-78
2022/11/25 07:41:45;;;;;;;1.60;1.20;;;8.40;98.20;;;;;;5037632;28;20477;-78
2022/11/25 07:44:14;;;;;;;1.60;1.20;;;8.40;98.20;;;;;;5046107;28;20491;-78
2022/11/25 07:46:42;;;;;;;1.60;1.20;;;8.40;98.20;;;;;;5033686;28;20493;-78
2022/11/25 07:49:12;;;;;;;1.60;1.20;;;8.40;98.20;;;;;;5048144;28;20467;-78
2022/11/25 07:51:41;;;;;;;1.60;1.17;;;8.40;98.20;;;;;;5034500;28;20469;-78
2022/11/25 07:54:10;;;;;;;1.63;1.30;;;8.30;98.20;;;;;;5049574;28;20988;-78
2022/11/25 07:56:39;;;;;;;1.60;1.30;;;8.30;98.20;;;;;;5034146;28;20481;-78
2022/11/25 07:59:07;;;;;;;1.93;1.73;;;8.30;98.20;;;;;;5048195;28;20644;-78
2022/11/25 08:01:34;;;;;;;1.60;1.20;;;8.30;98.20;;;;;;5019934;28;20938;-78
2022/11/25 08:04:00;;;;;;;1.60;1.30;;;8.40;98.20;;;;;;5033920;28;20593;-78
2022/11/25 08:06:29;;;;;;;1.60;1.20;;;8.40;98.20;;;;;;5021771;28;20486;-78
2022/11/25 08:08:57;;;;;;;1.60;1.17;;;8.40;98.20;;;;;;5035842;28;20463;-78
2022/11/25 08:11:26;;;;;;;1.60;1.30;;;8.50;98.20;;;;;;5022108;28;20482;-78
2022/11/25 08:13:53;;;;;;;1.60;1.20;;;8.50;98.20;;;;;;5035498;28;20577;-77
2022/11/25 08:16:22;;;;;;;1.60;1.20;;;8.60;98.20;;;;;;5021712;28;20528;-78
2022/11/25 08:18:49;;;;;;;1.60;1.20;;;8.60;98.20;;;;;;5037922;28;20455;-78
2022/11/25 08:21:17;;;;;;;1.60;1.20;;;8.60;98.20;;;;;;5021655;28;20479;-78
2022/11/25 08:23:47;;;;;;;1.60;1.20;;;8.60;98.20;;;;;;5038800;28;20780;-78
2022/11/25 08:26:16;;;;;;;1.60;1.20;;;8.70;98.20;;;;;;5024028;28;20481;-78
2022/11/25 08:28:43;;;;;;;1.60;1.30;;;8.70;98.20;;;;;;5052564;28;20470;-78
2022/11/25 08:31:13;;;;;;;1.60;1.20;;;8.80;98.20;;;;;;5020025;28;20789;-78
2022/11/25 08:33:40;;;;;;;1.60;1.17;;;8.80;98.20;;;;;;5038947;28;20483;-77
2022/11/25 08:36:08;;;;;;;1.60;1.20;;;8.90;98.20;;;;;;5022634;28;20447;-78
2022/11/25 08:38:35;;;;;;;1.60;1.20;;;9.00;98.20;;;;;;5054588;28;20464;-79
2022/11/25 08:41:03;;;;;;;1.60;1.20;;;9.00;98.20;;;;;;5021357;28;20984;-79
2022/11/25 08:43:30;;;;;;;1.60;1.20;;;9.00;98.20;;;;;;5055983;28;20574;-78
2022/11/25 08:45:57;;;;;;;1.60;1.17;;;9.00;98.20;;;;;;5019690;28;20489;-78
2022/11/25 08:48:23;;;;;;;1.60;1.17;;;9.00;98.20;;;;;;5039990;28;20463;-78
2022/11/25 08:50:53;;;;;;;1.60;1.20;;;9.00;98.20;;;;;;5020207;28;20466;-78
2022/11/25 08:53:22;;;;;;;1.60;1.27;;;9.00;98.20;;;;;;5058857;28;20486;-79
2022/11/25 08:55:49;;;;;;;1.60;1.20;;;9.00;98.20;;;;;;5023583;28;20467;-78
2022/11/25 08:58:17;;;;;;;1.70;1.40;;;9.10;98.20;;;;;;5060811;28;20695;-78
2022/11/25 09:00:44;;;;;;;1.60;1.20;;;9.10;98.20;;;;;;5029585;28;20953;-78
2022/11/25 09:03:12;;;;;;;1.60;1.30;;;9.20;98.20;;;;;;5050546;28;20483;-78
2022/11/25 09:05:40;;;;;;;1.60;1.20;;;9.30;98.20;;;;;;5028027;28;20548;-78
2022/11/25 09:08:09;;;;;;;1.60;1.17;;;9.40;98.20;;;;;;5051549;28;20489;-78
2022/11/25 09:10:36;;;;;;;1.60;1.20;;;9.50;98.20;;;;;;5026188;28;20467;-78
2022/11/25 09:13:02;;;;;;;1.60;1.20;;;9.50;98.20;;;;;;5050685;28;20489;-78
2022/11/25 09:15:31;;;;;;;1.60;1.30;;;9.60;98.20;;;;;;5032899;28;20455;-78
2022/11/25 09:17:59;;;;;;;1.60;1.10;;;9.70;98.20;;;;;;5049333;28;20778;-78
2022/11/25 09:20:26;;;;;;;1.60;1.20;;;9.80;98.20;;;;;;5028328;28;20467;-78
2022/11/25 09:22:53;;;;;;;1.60;1.20;;;9.90;98.20;;;;;;5049813;28;20524;-78
2022/11/25 09:25:20;;;;;;;1.60;1.10;;;10.00;98.20;;;;;;5027957;28;20495;-77
2022/11/25 09:27:47;;;;;;;1.60;1.10;;;10.00;98.20;;;;;;5051167;28;20512;-78
2022/11/25 09:30:14;;;;;;;1.60;1.10;;;10.10;98.20;;;;;;5029276;28;20467;-78
2022/11/25 09:32:43;;;;;;;1.60;1.10;;;10.20;98.20;;;;;;5048951;28;20509;-77
2022/11/25 09:35:10;;;;;;;1.60;1.10;;;10.30;98.20;;;;;;5029101;28;20466;-77
2022/11/25 09:37:37;;;;;;;1.60;1.20;;;10.40;98.20;;;;;;5047613;28;20488;-77
2022/11/25 09:40:06;;;;;;;1.60;1.10;;;10.50;98.20;;;;;;5032206;28;20482;-78
2022/11/25 09:48:46;;;;;;;1.60;1.10;;;10.70;98.20;;;;;;5017401;28;20574;-78
2022/11/25 09:51:20;;;;;;;1.60;1.10;;;10.80;98.20;;;;;;5025522;28;20485;-78
2022/11/25 09:53:51;;;;;;;1.60;1.10;;;10.90;98.20;;;;;;5050810;28;20483;-78
2022/11/25 09:56:27;;;;;;;1.60;1.10;;;10.90;98.20;;;;;;5026631;28;20480;-78
2022/11/25 09:58:59;;;;;;;1.60;1.10;;;11.00;98.20;;;;;;5049309;28;20741;-78
2022/11/25 10:01:28;;;;;;;1.60;1.10;;;11.00;98.20;;;;;;5029121;28;20579;-78
2022/11/25 10:04:01;;;;;;;1.60;1.10;;;11.10;98.20;;;;;;5047047;28;20505;-78
2022/11/25 10:06:30;;;;;;;1.60;1.10;;;11.20;98.20;;;;;;5022851;28;20486;-78
2022/11/25 10:09:01;;;;;;;1.60;1.10;;;11.20;98.20;;;;;;5036289;28;20841;-78
2022/11/25 10:11:35;;;;;;;1.60;1.10;;;11.30;98.20;;;;;;5021918;28;20474;-78
2022/11/25 10:14:10;;;;;;;1.60;1.20;;;11.40;98.20;;;;;;5033101;28;21045;-78
2022/11/25 10:16:47;;;;;;;1.60;1.10;;;11.40;98.20;;;;;;5032010;28;20468;-78
2022/11/25 10:19:26;;;;;;;1.60;1.10;;;11.50;98.20;;;;;;5043771;28;20474;-79
2022/11/25 10:21:53;;;;;;;1.60;1.07;;;11.60;98.20;;;;;;5033441;28;20477;-78
2022/11/25 10:24:20;;;;;;;1.60;1.10;;;11.60;98.20;;;;;;5041788;28;20491;-78
2022/11/25 10:26:56;;;;;;;1.60;1.10;;;11.60;98.20;;;;;;5031003;28;20485;-78
2022/11/25 10:29:26;;;;;;;1.60;1.10;;;11.60;98.20;;;;;;5041586;28;20471;-78
2022/11/25 10:32:20;;;;;;;1.60;1.10;;;11.50;98.20;;;;;;5034070;28;20947;-77
2022/11/25 10:34:53;;;;;;;1.60;1.10;;;11.50;98.20;;;;;;5034821;28;20486;-78
2022/11/25 10:37:28;;;;;;;1.70;1.53;;;11.40;98.20;;;;;;5041414;28;20477;-77
2022/11/25 10:39:55;;;;;;;1.60;1.10;;;11.40;98.20;;;;;;5032409;28;20473;-77
2022/11/25 10:42:25;;;;;;;6.07;2.60;;;11.50;98.20;;;;;;5044043;28;20489;-77
2022/11/25 10:44:53;;;;;;;1.60;1.00;;;11.50;98.20;;;;;;5030941;28;20475;-77
2022/11/25 10:47:33;;;;;;;1.60;1.07;;;11.60;98.20;;;;;;5042634;28;20536;-78
2022/11/25 10:50:15;;;;;;;1.60;1.10;;;11.60;98.20;;;;;;5030738;28;20839;-77
2022/11/25 10:52:48;;;;;;;1.60;1.10;;;11.80;98.20;;;;;;5049279;28;20477;-77
2022/11/25 10:55:17;;;;;;;1.60;1.00;;;11.90;98.20;;;;;;5026387;28;20452;-78
2022/11/25 10:57:44;;;;;;;1.60;1.10;;;12.00;98.20;;;;;;5047362;28;20481;-77
2022/11/25 11:00:26;;;;;;;1.60;1.00;;;12.10;98.20;;;;;;5029229;28;20760;-78
2022/11/25 11:02:54;;;;;;;1.60;1.10;;;12.20;98.20;;;;;;5050016;28;20485;-78
2022/11/25 11:05:25;;;;;;;1.60;1.00;;;12.30;98.20;;;;;;5029105;28;20498;-79
2022/11/25 11:08:09;;;;;;;1.60;1.20;;;12.30;98.20;;;;;;5050751;28;20481;-81
2022/11/25 11:10:37;;;;;;;1.60;1.10;;;12.40;98.20;;;;;;5030436;28;20474;-77
2022/11/25 11:13:06;;;;;;;1.60;1.20;;;12.40;98.20;;;;;;5049945;28;20495;-79
2022/11/25 11:15:45;;;;;;;1.60;1.00;;;12.40;98.20;;;;;;5029237;28;20469;-78
2022/11/25 11:18:25;;;;;;;1.60;1.00;;;12.40;98.20;;;;;;5050631;28;20487;-78
2022/11/25 11:20:55;;;;;;;1.60;1.00;;;12.30;98.20;;;;;;5020463;28;20459;-78
2022/11/25 11:23:23;;;;;;;1.60;1.20;;;12.20;98.20;;;;;;5057088;28;20486;-79
2022/11/25 11:25:59;;;;;;;1.60;1.00;;;12.10;98.20;;;;;;5018320;28;20823;-79
2022/11/25 11:28:31;;;;;;;1.60;1.10;;;12.10;98.20;;;;;;5057599;28;20458;-78
2022/11/25 11:31:02;;;;;;;1.60;1.00;;;12.10;98.20;;;;;;5021937;28;20459;-79
2022/11/25 11:33:34;;;;;;;1.53;1.00;;;12.20;98.20;;;;;;5058137;28;20483;-79
2022/11/25 11:36:20;;;;;;;1.90;1.30;;;12.20;98.20;;;;;;5020378;28;20459;-79
2022/11/25 11:38:53;;;;;;;1.60;1.10;;;12.30;98.20;;;;;;5049797;28;20462;-79
2022/11/25 11:41:30;;;;;;;1.50;1.00;;;12.20;98.20;;;;;;5027878;28;20472;-79
2022/11/25 11:44:07;;;;;;;1.60;1.10;;;12.20;98.20;;;;;;5051503;28;20494;-78
2022/11/25 11:46:48;;;;;;;1.57;1.00;;;12.20;98.20;;;;;;5038593;28;20488;-78
2022/11/25 11:49:27;;;;;;;1.60;1.03;;;12.10;98.20;;;;;;5051753;28;20477;-78
2022/11/25 11:52:07;;;;;;;1.57;1.10;;;12.20;98.20;;;;;;5044562;28;20519;-78
2022/11/25 11:54:36;;;;;;;1.57;1.00;;;12.20;98.20;;;;;;5046686;28;20474;-79
2022/11/25 11:57:07;;;;;;;1.60;1.00;;;12.20;98.20;;;;;;5043714;28;20500;-78
2022/11/25 11:59:47;;;;;;;1.57;1.03;;;12.30;98.20;;;;;;5043964;28;20485;-79
2022/11/25 12:02:24;;;;;;;1.60;1.00;;;12.30;98.20;;;;;;5046629;28;20484;-79
2022/11/25 12:04:55;;;;;;;1.60;1.00;;;12.30;98.20;;;;;;5042224;28;20900;-80
2022/11/25 12:07:32;;;;;;;1.60;1.07;;;12.40;98.20;;;;;;5049289;28;20571;-80
2022/11/25 12:10:09;;;;;;;1.53;1.00;;;12.40;98.20;;;;;;5038987;28;20467;-78
2022/11/25 12:12:38;;;;;;;1.57;1.00;;;12.40;98.20;;;;;;5013998;23;20519;-78
2022/11/25 12:15:14;;;;;;;1.60;1.00;;;12.40;98.20;;;;;;5029143;28;20462;-78
2022/11/25 12:17:45;;;;;;;1.57;1.00;;;12.40;98.20;;;;;;5014233;28;20541;-80
2022/11/25 12:20:17;;;;;;;1.60;1.00;;;12.40;98.20;;;;;;5025427;28;20583;-79
2022/11/25 12:22:53;;;;;;;1.60;1.00;;;12.40;98.20;;;;;;5001430;28;20487;-78
2022/11/25 12:25:22;;;;;;;1.60;1.10;;;12.40;98.20;;;;;;5021796;28;20466;-77
2022/11/25 12:27:56;;;;;;;1.60;1.10;;;12.40;98.20;;;;;;5000399;28;20480;-77
2022/11/25 12:30:23;;;;;;;1.60;1.20;;;12.40;98.20;;;;;;5025913;28;20486;-78
2022/11/25 12:32:58;;;;;;;1.57;1.10;;;12.30;98.20;;;;;;5013749;28;20483;-77
2022/11/25 12:35:42;;;;;;;1.57;1.10;;;12.30;98.20;;;;;;5024474;28;20462;-78
2022/11/25 12:38:23;;;;;;;1.57;1.00;;;12.20;98.20;;;;;;5016377;28;20568;-77
2022/11/25 12:40:59;;;;;;;1.60;1.10;;;12.20;98.20;;;;;;5017004;28;20517;-77
2022/11/25 12:43:35;;;;;;;1.60;1.00;;;12.20;98.20;;;;;;5025189;28;20884;-78
2022/11/25 12:46:13;;;;;;;1.60;1.10;;;12.30;98.20;;;;;;5014906;28;21007;-77
2022/11/25 12:48:41;;;;;;;1.60;1.10;;;12.40;98.20;;;;;;5014019;28;20467;-76
2022/11/25 12:51:24;;;;;;;1.60;1.00;;;12.40;98.20;;;;;;5016632;28;20467;-77
2022/11/25 12:54:04;;;;;;;1.53;1.00;;;12.50;98.20;;;;;;5030416;28;20485;-77
2022/11/25 12:56:48;;;;;;;1.60;1.10;;;12.70;98.20;;;;;;5012357;28;20476;-77
2022/11/25 12:59:40;;;;;;;1.60;1.00;;;12.80;98.20;;;;;;5020160;28;20895;-77
2022/11/25 13:02:31;;;;;;;1.57;1.00;;;13.00;98.20;;;;;;5015689;28;20497;-77
2022/11/25 13:05:20;;;;;;;1.53;1.00;;;13.00;98.20;;;;;;5024462;28;20844;-77
2022/11/25 13:07:56;;;;;;;1.60;1.20;;;13.00;98.20;;;;;;5013315;28;21481;-77
2022/11/25 13:10:51;;;;;;;1.60;1.10;;;13.10;98.20;;;;;;5025692;28;20550;-78
2022/11/25 13:13:38;;;;;;;1.60;1.00;;;13.10;98.20;;;;;;4998276;28;20475;-77
2022/11/25 13:16:07;;;;;;;1.60;1.10;;;13.10;98.20;;;;;;5016038;28;20467;-79
2022/11/25 13:18:38;;;;;;;1.60;1.10;;;13.00;98.20;;;;;;5025153;28;20467;-78
2022/11/25 13:21:07;;;;;;;1.60;1.20;;;13.10;98.20;;;;;;5014435;28;20478;-79